createdAt,value
2022-12-14T00:01:49.513Z,60.33
2022-12-14T00:04:18.679Z,67.97
2022-12-14T00:06:47.344Z,60.17
2022-12-14T00:09:18.112Z,59.97
2022-12-14T00:11:46.805Z,68.20
2022-12-14T00:14:15.554Z,59.70
2022-12-14T00:16:44.276Z,61.93
2022-12-14T00:19:13.029Z,64.10
2022-12-14T00:21:41.693Z,61.87
2022-12-14T00:24:12.384Z,58.53
2022-12-14T00:26:41.062Z,56.67
2022-12-14T00:29:09.883Z,64.37
2022-12-14T00:31:40.045Z,56.20
2022-12-14T00:34:09.127Z,65.37
2022-12-14T00:36:39.515Z,59.77
2022-12-14T00:39:11.419Z,66.73
2022-12-14T00:41:41.604Z,74.23
2022-12-14T00:44:10.751Z,70.33
2022-12-14T00:46:40.707Z,72.53
2022-12-14T00:49:10.613Z,76.00
2022-12-14T00:51:41.757Z,71.40
2022-12-14T00:54:11.238Z,67.30
2022-12-14T00:56:40.145Z,70.40
2022-12-14T00:59:11.607Z,59.47
2022-12-14T01:01:40.459Z,63.40
2022-12-14T01:04:21.089Z,64.50
2022-12-14T01:06:53.157Z,58.00
2022-12-14T01:09:24.965Z,64.27
2022-12-14T01:11:53.930Z,61.03
2022-12-14T01:14:23.413Z,55.87
2022-12-14T01:16:52.178Z,55.03
2022-12-14T01:19:20.829Z,56.97
2022-12-14T01:21:49.576Z,63.13
2022-12-14T01:24:19.406Z,54.77
2022-12-14T01:26:48.381Z,56.50
2022-12-14T01:29:17.254Z,59.13
2022-12-14T01:31:48.841Z,63.25
2022-12-14T01:34:18.746Z,53.73
2022-12-14T01:36:48.552Z,60.57
2022-12-14T01:39:18.887Z,64.10
2022-12-14T01:41:51.645Z,60.70
2022-12-14T01:44:52.764Z,66.57
2022-12-14T01:47:28.634Z,58.67
2022-12-14T01:50:03.013Z,65.20
2022-12-14T01:52:39.113Z,66.90
2022-12-14T01:55:13.765Z,62.97
2022-12-14T01:57:47.687Z,57.07
2022-12-14T02:00:18.087Z,60.95
2022-12-14T02:02:53.006Z,59.97
2022-12-14T02:05:25.131Z,59.73
2022-12-14T02:07:56.483Z,67.03
2022-12-14T02:10:29.379Z,62.93
2022-12-14T02:13:04.141Z,62.93
2022-12-14T02:15:35.284Z,65.57
2022-12-14T02:18:09.201Z,59.97
2022-12-14T02:20:53.343Z,53.30
2022-12-14T02:23:57.740Z,62.03
2022-12-14T02:26:57.143Z,72.67
2022-12-14T02:29:56.219Z,55.83
2022-12-14T02:32:50.158Z,55.17
2022-12-14T02:35:30.606Z,59.50
2022-12-14T02:38:12.714Z,61.60
2022-12-14T02:40:54.459Z,60.87
2022-12-14T02:43:31.152Z,59.13
2022-12-14T02:46:10.510Z,62.93
2022-12-14T02:48:45.292Z,60.17
2022-12-14T02:51:24.754Z,59.23
2022-12-14T02:54:01.156Z,61.53
2022-12-14T02:56:37.147Z,63.73
2022-12-14T02:59:10.451Z,57.23
2022-12-14T03:01:41.871Z,60.47
2022-12-14T03:04:16.181Z,67.60
2022-12-14T03:06:57.260Z,59.53
2022-12-14T03:09:29.831Z,57.63
2022-12-14T03:12:04.484Z,51.43
2022-12-14T03:14:39.066Z,61.33
2022-12-14T03:17:17.579Z,54.90
2022-12-14T03:19:53.257Z,57.95
2022-12-14T03:22:28.721Z,58.03
2022-12-14T03:25:01.626Z,66.27
2022-12-14T03:27:33.928Z,60.90
2022-12-14T03:30:08.577Z,65.20
2022-12-14T03:32:44.737Z,69.80
2022-12-14T03:35:19.465Z,67.43
2022-12-14T03:37:54.883Z,72.40
2022-12-14T03:40:30.939Z,80.50
2022-12-14T03:43:06.931Z,72.63
2022-12-14T03:45:46.938Z,78.30
2022-12-14T03:48:27.864Z,79.83
2022-12-14T03:51:07.332Z,77.70
2022-12-14T03:53:43.925Z,84.77
2022-12-14T03:56:19.869Z,82.77
2022-12-14T03:59:01.419Z,78.97
2022-12-14T04:01:40.394Z,82.80
2022-12-14T04:04:15.611Z,84.60
2022-12-14T04:06:52.957Z,83.23
2022-12-14T04:09:32.239Z,85.13
2022-12-14T04:12:26.756Z,85.87
2022-12-14T04:15:20.790Z,92.87
2022-12-14T04:18:27.700Z,73.12
2022-12-14T04:21:02.002Z,71.07
2022-12-14T04:26:32.340Z,78.27
2022-12-14T04:29:25.983Z,88.93
2022-12-14T04:32:00.680Z,86.23
2022-12-14T04:34:32.590Z,89.50
2022-12-14T04:37:06.139Z,81.00
2022-12-14T04:39:40.413Z,81.32
2022-12-14T04:42:13.964Z,75.70
2022-12-14T04:44:47.445Z,77.83
2022-12-14T04:47:19.454Z,82.45
2022-12-14T04:49:54.828Z,75.10
2022-12-14T04:52:31.239Z,74.13
2022-12-14T04:55:05.465Z,78.87
2022-12-14T04:57:41.247Z,71.43
2022-12-14T05:00:14.409Z,71.13
2022-12-14T05:03:07.356Z,81.53
2022-12-14T05:05:42.932Z,85.90
2022-12-14T05:08:22.760Z,92.73
2022-12-14T05:11:21.866Z,78.87
2022-12-14T05:13:52.112Z,77.90
2022-12-14T05:16:25.627Z,83.33
2022-12-14T05:18:54.728Z,75.67
2022-12-14T05:21:42.089Z,83.03
2022-12-14T05:24:10.910Z,87.60
2022-12-14T05:26:41.926Z,91.70
2022-12-14T05:29:14.480Z,90.20
2022-12-14T05:31:49.311Z,71.53
2022-12-14T05:34:18.947Z,75.03
2022-12-14T05:36:47.833Z,83.83
2022-12-14T05:39:17.509Z,83.10
2022-12-14T05:41:47.871Z,94.27
2022-12-14T05:44:20.073Z,86.13
2022-12-14T05:46:49.870Z,79.10
2022-12-14T05:49:21.736Z,91.30
2022-12-14T05:51:50.662Z,84.37
2022-12-14T05:54:20.588Z,83.77
2022-12-14T05:56:50.979Z,91.33
2022-12-14T05:59:20.452Z,89.33
2022-12-14T06:01:52.099Z,82.57
2022-12-14T06:04:23.108Z,90.42
2022-12-14T06:06:52.513Z,84.77
2022-12-14T06:09:22.400Z,88.53
2022-12-14T06:11:52.312Z,94.07
2022-12-14T06:14:23.676Z,99.83
2022-12-14T06:16:52.380Z,90.43
2022-12-14T06:19:21.336Z,90.37
2022-12-14T06:21:52.933Z,88.13
2022-12-14T06:24:23.171Z,84.67
2022-12-14T06:26:52.367Z,82.37
2022-12-14T06:29:22.682Z,91.63
2022-12-14T06:31:52.656Z,94.73
2022-12-14T06:34:26.369Z,76.63
2022-12-14T06:36:57.274Z,88.17
2022-12-14T06:39:28.843Z,83.27
2022-12-14T06:41:58.738Z,88.50
2022-12-14T06:44:27.550Z,91.30
2022-12-14T06:46:57.056Z,84.23
2022-12-14T06:49:32.485Z,84.50
2022-12-14T06:52:01.181Z,82.03
2022-12-14T06:54:30.232Z,76.63
2022-12-14T06:56:58.948Z,78.17
2022-12-14T06:59:28.218Z,82.97
2022-12-14T07:01:57.211Z,81.60
2022-12-14T07:04:25.952Z,79.93
2022-12-14T07:06:54.790Z,82.33
2022-12-14T07:09:24.310Z,80.73
2022-12-14T07:11:52.960Z,80.70
2022-12-14T07:14:24.824Z,85.43
2022-12-14T07:16:54.023Z,77.90
2022-12-14T07:19:22.989Z,99.17
2022-12-14T07:21:54.069Z,93.07
2022-12-14T07:24:22.915Z,88.50
2022-12-14T07:26:52.729Z,96.47
2022-12-14T07:29:21.734Z,87.57
2022-12-14T07:31:50.847Z,103.10
2022-12-14T07:34:20.141Z,97.77
2022-12-14T07:36:51.370Z,94.27
2022-12-14T07:39:21.189Z,106.87
2022-12-14T07:41:50.418Z,101.07
2022-12-14T07:44:22.698Z,97.50
2022-12-14T07:46:54.410Z,94.63
2022-12-14T07:49:23.660Z,105.30
2022-12-14T07:51:53.350Z,94.10
2022-12-14T07:54:25.948Z,109.80
2022-12-14T07:56:54.689Z,95.27
2022-12-14T07:59:23.677Z,100.80
2022-12-14T08:01:55.108Z,96.77
2022-12-14T08:04:24.277Z,99.00
2022-12-14T08:06:53.166Z,89.07
2022-12-14T08:09:21.980Z,90.27
2022-12-14T08:11:50.754Z,104.23
2022-12-14T08:14:19.863Z,105.07
2022-12-14T08:16:50.432Z,97.90
2022-12-14T08:19:20.578Z,91.97
2022-12-14T08:21:49.297Z,104.80
2022-12-14T08:24:18.188Z,90.20
2022-12-14T08:26:49.563Z,91.50
2022-12-14T08:29:21.862Z,98.90
2022-12-14T08:31:50.777Z,95.97
2022-12-14T08:34:22.260Z,90.00
2022-12-14T08:36:50.971Z,100.27
2022-12-14T08:39:19.844Z,96.80
2022-12-14T08:41:48.660Z,94.67
2022-12-14T08:44:18.254Z,94.57
2022-12-14T08:46:50.592Z,90.57
2022-12-14T08:49:25.354Z,91.57
2022-12-14T08:51:57.919Z,92.73
2022-12-14T08:54:26.799Z,87.47
2022-12-14T08:56:55.546Z,86.53
2022-12-14T08:59:51.987Z,83.57
2022-12-14T09:02:13.505Z,84.87
2022-12-14T09:04:43.705Z,78.13
2022-12-14T09:07:12.597Z,63.77
2022-12-14T09:09:41.883Z,75.53
2022-12-14T09:12:12.281Z,77.87
2022-12-14T09:14:41.306Z,62.33
2022-12-14T09:17:10.005Z,76.40
2022-12-14T09:19:38.876Z,71.77
2022-12-14T09:22:07.734Z,70.63
2022-12-14T09:24:36.996Z,78.97
2022-12-14T09:27:05.657Z,70.27
2022-12-14T09:29:34.554Z,67.73
2022-12-14T09:32:03.546Z,72.90
2022-12-14T09:34:32.350Z,71.53
2022-12-14T09:37:04.153Z,70.50
2022-12-14T09:39:35.259Z,66.33
2022-12-14T09:42:20.346Z,74.53
2022-12-14T09:45:01.287Z,74.03
2022-12-14T09:47:35.501Z,74.53
2022-12-14T09:52:39.572Z,68.47
2022-12-14T09:55:20.190Z,72.50
2022-12-14T09:57:53.499Z,64.40
2022-12-14T10:00:23.178Z,62.77
2022-12-14T10:03:07.863Z,55.70
2022-12-14T10:06:01.207Z,58.07
2022-12-14T10:08:35.313Z,59.17
2022-12-14T10:11:11.344Z,60.37
2022-12-14T10:13:56.489Z,56.87
2022-12-14T10:16:31.972Z,54.00
2022-12-14T10:19:24.241Z,60.63
2022-12-14T10:21:57.122Z,52.20
2022-12-14T10:24:30.722Z,55.20
2022-12-14T10:27:01.387Z,60.03
2022-12-14T10:29:37.766Z,56.07
2022-12-14T10:32:19.334Z,50.57
2022-12-14T10:34:48.543Z,54.80
2022-12-14T10:37:30.796Z,52.20
2022-12-14T10:40:29.221Z,55.47
2022-12-14T10:43:21.596Z,50.43
2022-12-14T10:46:06.115Z,51.00
2022-12-14T10:48:50.398Z,55.50
2022-12-14T10:51:24.923Z,48.83
2022-12-14T10:53:59.938Z,54.25
2022-12-14T10:56:31.907Z,56.60
2022-12-14T10:59:26.886Z,51.67
2022-12-14T11:02:05.718Z,57.43
2022-12-14T11:04:39.307Z,63.27
2022-12-14T11:07:14.810Z,54.27
2022-12-14T11:09:46.802Z,53.47
2022-12-14T11:12:23.049Z,51.83
2022-12-14T11:14:55.550Z,55.77
2022-12-14T11:17:37.343Z,59.23
2022-12-14T11:20:17.461Z,54.90
2022-12-14T11:22:50.419Z,54.30
2022-12-14T11:25:32.066Z,56.00
2022-12-14T11:28:36.170Z,52.67
2022-12-14T11:31:12.193Z,53.40
2022-12-14T11:33:49.809Z,52.80
2022-12-14T11:36:27.289Z,60.33
2022-12-14T11:38:57.419Z,57.57
2022-12-14T11:41:30.654Z,55.07
2022-12-14T11:44:21.635Z,61.07
2022-12-14T11:46:54.639Z,64.17
2022-12-14T11:49:29.140Z,59.63
2022-12-14T11:54:28.367Z,55.67
2022-12-14T11:57:01.606Z,58.40
2022-12-14T11:59:38.501Z,53.52
2022-12-14T12:02:17.876Z,55.47
2022-12-14T12:04:52.852Z,55.53
2022-12-14T12:09:55.475Z,52.73
2022-12-14T12:12:24.255Z,61.00
2022-12-14T12:14:58.255Z,48.60
2022-12-14T12:17:40.396Z,51.23
2022-12-14T12:20:28.132Z,58.50
2022-12-14T12:23:03.175Z,58.43
2022-12-14T12:25:37.658Z,48.20
2022-12-14T12:28:16.283Z,53.47
2022-12-14T12:30:50.988Z,46.70
2022-12-14T12:33:32.597Z,49.70
2022-12-14T12:36:04.845Z,51.83
2022-12-14T12:38:49.760Z,54.03
2022-12-14T13:07:44.815Z,52.70
2022-12-14T13:10:19.777Z,59.93
2022-12-14T13:12:51.527Z,58.80
2022-12-14T13:15:27.247Z,58.67
2022-12-14T13:18:00.324Z,56.00
2022-12-14T13:20:31.857Z,58.80
2022-12-14T13:23:21.648Z,65.23
2022-12-14T13:26:06.279Z,67.90
2022-12-14T13:28:50.514Z,63.02
2022-12-14T13:31:35.555Z,59.27
2022-12-14T13:34:28.368Z,56.90
2022-12-14T13:37:20.310Z,60.20
2022-12-14T13:40:20.316Z,64.43
2022-12-14T13:42:59.022Z,64.90
2022-12-14T13:45:40.077Z,62.33
2022-12-14T13:51:01.821Z,57.90
2022-12-14T13:53:38.134Z,57.30
2022-12-14T13:56:08.028Z,60.30
2022-12-14T13:58:43.127Z,57.47
2022-12-14T14:01:16.083Z,61.77
2022-12-14T14:03:56.394Z,62.88
2022-12-14T14:06:41.430Z,64.63
2022-12-14T14:09:59.167Z,68.85
2022-12-14T14:12:38.729Z,66.90
2022-12-14T14:16:11.251Z,59.73
2022-12-14T14:18:47.200Z,59.60
2022-12-14T14:21:52.472Z,58.40
2022-12-14T14:24:27.584Z,50.90
2022-12-14T14:27:10.707Z,58.90
2022-12-14T14:29:46.670Z,60.97
2022-12-14T14:32:38.234Z,55.53
2022-12-14T14:35:22.865Z,58.60
2022-12-14T14:38:01.531Z,63.67
2022-12-14T14:41:06.672Z,63.03
2022-12-14T14:43:32.160Z,63.90
2022-12-14T14:46:07.285Z,72.57
2022-12-14T14:48:40.700Z,63.43
2022-12-14T14:51:21.197Z,65.60
2022-12-14T14:57:55.407Z,65.03
2022-12-14T15:00:25.178Z,53.37
2022-12-14T15:02:55.552Z,58.30
2022-12-14T15:05:43.820Z,56.23
2022-12-14T15:08:22.529Z,61.23
2022-12-14T15:10:54.000Z,56.47
2022-12-14T15:13:28.429Z,68.60
2022-12-14T15:15:58.971Z,58.30
2022-12-14T15:18:30.583Z,64.10
2022-12-14T15:21:03.432Z,56.53
2022-12-14T15:23:38.002Z,63.43
2022-12-14T15:26:16.963Z,56.83
2022-12-14T15:28:52.795Z,66.93
2022-12-14T15:31:30.935Z,73.07
2022-12-14T15:34:01.260Z,79.17
2022-12-14T15:36:34.954Z,76.67
2022-12-14T15:39:04.499Z,82.27
2022-12-14T15:41:35.312Z,83.70
2022-12-14T15:44:20.473Z,79.87
2022-12-14T15:46:55.103Z,76.70
2022-12-14T15:49:24.236Z,75.90
2022-12-14T15:51:57.125Z,81.77
2022-12-14T15:54:28.854Z,89.45
2022-12-14T15:56:59.941Z,74.60
2022-12-14T15:59:32.031Z,72.97
2022-12-14T16:02:15.101Z,75.27
2022-12-14T16:04:45.524Z,78.00
2022-12-14T16:07:19.384Z,80.33
2022-12-14T16:09:51.952Z,80.87
2022-12-14T16:12:24.294Z,86.80
2022-12-14T16:14:56.910Z,74.93
2022-12-14T16:17:31.615Z,80.23
2022-12-14T16:20:04.797Z,76.37
2022-12-14T16:22:38.363Z,67.87
2022-12-14T16:25:19.817Z,83.00
2022-12-14T16:27:50.929Z,79.13
2022-12-14T16:30:30.640Z,83.67
2022-12-14T16:33:18.250Z,72.37
2022-12-14T16:35:58.078Z,63.63
2022-12-14T16:38:27.277Z,78.53
2022-12-14T16:41:05.187Z,75.67
2022-12-14T16:43:37.613Z,76.17
2022-12-14T16:46:21.129Z,75.70
2022-12-14T16:49:19.466Z,79.57
2022-12-14T16:52:07.237Z,77.17
2022-12-14T16:54:41.008Z,68.60
2022-12-14T16:57:20.443Z,79.43
2022-12-14T17:00:02.266Z,72.17
2022-12-14T17:02:36.308Z,63.00
2022-12-14T17:05:16.530Z,75.17
2022-12-14T17:07:47.665Z,69.83
2022-12-14T17:10:25.231Z,60.17
2022-12-14T17:13:01.929Z,68.43
2022-12-14T17:15:39.123Z,74.93
2022-12-14T17:18:13.987Z,63.77
2022-12-14T17:20:46.763Z,68.33
2022-12-14T17:23:18.520Z,64.13
2022-12-14T17:25:49.024Z,66.00
2022-12-14T17:28:25.048Z,69.90
2022-12-14T17:30:57.538Z,67.03
2022-12-14T17:33:28.792Z,64.77
2022-12-14T17:35:58.478Z,61.87
2022-12-14T17:38:27.508Z,65.83
2022-12-14T17:41:02.863Z,70.97
2022-12-14T17:43:35.600Z,67.27
2022-12-14T17:46:07.131Z,66.93
2022-12-14T17:48:40.658Z,68.73
2022-12-14T17:51:25.166Z,54.57
2022-12-14T17:53:56.150Z,65.50
2022-12-14T17:56:30.282Z,65.13
2022-12-14T17:59:01.714Z,59.90
2022-12-14T18:04:22.535Z,66.77
2022-12-14T18:07:00.909Z,64.67
2022-12-14T18:09:34.040Z,69.87
2022-12-14T18:14:55.000Z,61.93
2022-12-14T18:17:25.149Z,66.53
2022-12-14T18:19:59.457Z,68.90
2022-12-14T18:22:28.989Z,67.83
2022-12-14T18:25:08.507Z,62.77
2022-12-14T18:27:38.518Z,64.77
2022-12-14T18:30:12.120Z,64.73
2022-12-14T18:32:51.881Z,68.33
2022-12-14T18:35:26.226Z,69.30
2022-12-14T18:37:56.833Z,67.67
2022-12-14T18:40:29.496Z,66.97
2022-12-14T18:42:58.893Z,64.20
2022-12-14T18:45:33.806Z,68.23
2022-12-14T18:48:10.879Z,70.97
2022-12-14T18:50:49.667Z,73.97
2022-12-14T18:53:21.760Z,70.20
2022-12-14T18:56:01.712Z,75.90
2022-12-14T18:58:45.581Z,70.53
2022-12-14T19:01:18.520Z,75.63
2022-12-14T19:03:49.012Z,80.30
2022-12-14T19:06:43.615Z,63.27
2022-12-14T19:09:13.413Z,55.57
2022-12-14T19:11:48.134Z,77.03
2022-12-14T19:14:20.446Z,73.33
2022-12-14T19:16:52.182Z,69.00
2022-12-14T19:19:24.296Z,65.93
2022-12-14T19:21:57.615Z,79.67
2022-12-14T19:24:27.760Z,75.27
2022-12-14T19:26:58.519Z,72.23
2022-12-14T19:29:28.452Z,69.47
2022-12-14T19:32:05.327Z,74.90
2022-12-14T19:34:36.841Z,69.27
2022-12-14T19:37:06.967Z,67.97
2022-12-14T19:39:37.721Z,69.17
2022-12-14T19:42:07.103Z,73.13
2022-12-14T19:44:36.860Z,77.63
2022-12-14T19:47:06.449Z,79.33
2022-12-14T19:49:36.086Z,76.87
2022-12-14T19:52:09.080Z,75.70
2022-12-14T19:54:39.559Z,87.03
2022-12-14T19:57:11.081Z,80.63
2022-12-14T19:59:44.876Z,81.40
2022-12-14T20:02:15.087Z,74.90
2022-12-14T20:04:47.029Z,76.10
2022-12-14T20:07:16.682Z,78.33
2022-12-14T20:09:47.685Z,75.40
2022-12-14T20:12:18.060Z,79.13
2022-12-14T20:14:49.344Z,73.57
2022-12-14T20:17:19.387Z,76.70
2022-12-14T20:19:48.789Z,73.20
2022-12-14T20:22:18.165Z,78.55
2022-12-14T20:24:48.277Z,73.77
2022-12-14T20:27:20.018Z,75.37
2022-12-14T20:29:50.973Z,80.63
2022-12-14T20:32:20.097Z,74.10
2022-12-14T20:34:49.567Z,74.40
2022-12-14T20:37:34.276Z,82.80
2022-12-14T20:42:31.431Z,67.80
2022-12-14T20:45:06.702Z,81.87
2022-12-14T20:47:36.180Z,67.70
2022-12-14T20:50:06.258Z,63.13
2022-12-14T20:52:35.211Z,68.83
2022-12-14T20:55:04.672Z,70.80
2022-12-14T20:57:33.747Z,61.07
2022-12-14T21:00:05.620Z,70.00
2022-12-14T21:02:34.439Z,61.90
2022-12-14T21:05:04.421Z,64.67
2022-12-14T21:07:33.253Z,70.90
2022-12-14T21:10:04.944Z,73.33
2022-12-14T21:12:36.375Z,92.20
2022-12-14T21:15:06.841Z,87.70
2022-12-14T21:17:35.729Z,98.37
2022-12-14T21:20:05.702Z,145.63
2022-12-14T21:22:35.163Z,181.50
2022-12-14T21:25:06.385Z,116.47
2022-12-14T21:27:38.406Z,156.40
2022-12-14T21:30:13.477Z,98.93
2022-12-14T21:32:42.392Z,84.80
2022-12-14T21:35:12.695Z,80.63
2022-12-14T21:37:42.267Z,80.70
2022-12-14T21:40:33.693Z,66.07
2022-12-14T21:43:07.249Z,61.37
2022-12-14T21:45:38.975Z,56.10
2022-12-14T21:48:08.007Z,61.37
2022-12-14T21:50:42.318Z,56.60
2022-12-14T21:53:11.359Z,51.83
2022-12-14T21:55:49.336Z,55.67
2022-12-14T21:58:18.223Z,57.47
2022-12-14T22:00:47.772Z,61.77
2022-12-14T22:03:16.988Z,55.97
2022-12-14T22:05:46.573Z,48.93
2022-12-14T22:08:15.299Z,58.33
2022-12-14T22:10:44.273Z,55.67
2022-12-14T22:13:15.486Z,50.07
2022-12-14T22:15:46.223Z,50.43
2022-12-14T22:18:18.384Z,55.97
2022-12-14T22:20:50.638Z,50.95
2022-12-14T22:23:19.598Z,56.97
2022-12-14T22:25:50.186Z,51.70
2022-12-14T22:28:18.929Z,54.63
2022-12-14T22:30:48.370Z,57.33
2022-12-14T22:33:17.910Z,62.30
2022-12-14T22:35:47.516Z,59.27
2022-12-14T22:38:16.586Z,47.63
2022-12-14T22:40:46.098Z,60.47
2022-12-14T22:43:14.984Z,59.73
2022-12-14T22:45:44.317Z,52.00
2022-12-14T22:48:14.004Z,55.47
2022-12-14T22:50:43.360Z,51.27
2022-12-14T22:53:13.445Z,54.03
2022-12-14T22:55:46.296Z,51.97
2022-12-14T22:58:19.723Z,52.53
2022-12-14T23:00:49.668Z,54.63
2022-12-14T23:03:18.489Z,32.53
2022-12-14T23:05:50.223Z,52.83
2022-12-14T23:08:18.957Z,45.37
2022-12-14T23:11:06.685Z,56.80
2022-12-14T23:13:53.769Z,48.03
2022-12-14T23:16:41.074Z,56.17
2022-12-14T23:19:28.175Z,59.07
2022-12-14T23:22:15.156Z,48.57
2022-12-14T23:25:02.230Z,57.20
2022-12-14T23:27:49.328Z,56.77
2022-12-14T23:30:37.227Z,43.53
2022-12-14T23:33:24.286Z,52.87
2022-12-14T23:36:11.398Z,52.13
2022-12-14T23:38:58.892Z,53.43
2022-12-14T23:41:47.068Z,54.13
2022-12-14T23:44:34.423Z,49.07
2022-12-14T23:47:24.300Z,60.37
2022-12-14T23:50:11.768Z,55.63
2022-12-14T23:52:59.046Z,48.07
2022-12-14T23:55:49.716Z,46.30
2022-12-14T23:58:37.047Z,51.90
